SAOCSACO

Guest
Details From SAOC - Rio Cuarto Area De Material
To SACO - Ambrosio L V Taravella
Flight Number -
Tags Generated
Created
Modified
Stats Distance 106 nm / 196 km
Max Altitude 0 ft / 0 m
Waypoints 2
Social Downloads 4
Likes 0
Share VATSIM

Download

Looking for another format? Having issues loading an existing format? Contact us
Advertisement - Login to hide

Notes

Generated

Route

SAOC SACO

ID Type Via Altitude Latitude Longitude Leg Dist Tot Dist Heading (true) Name
O SAOC APT - 0 ft / 0 m -33.08339˚ -64.26140˚ - 0 nm - -
O SACO APT - 0 ft / 0 m -31.32481˚ -64.20926˚ 105 nm 105 nm 1° / 1° -

Altitude Profile

Advertisement - Login to hide

SAOC

Details ICAO SAOC (RCU)
Name RIO CUARTO AREA DE MATERIAL
Region Argentina
Timezone America/Argentina/Cordoba (UTC-3.0)
Stats Elevation 1,381 ft / 421 m (AMSL)
Location -33.092311° -64.265114°
Runways 2
Magnetic Variation 4.517° W

METAR

SAOC 131200Z 20010KT 9999 SCT025 FEW040CB SCT100 21/14 Q1011

Decode

TAF

Not found

Departure Runways

ID Width Length Bearing (true) Bearing (mag) Surface Threshold Offset Overrun Length
05 164 ft / 50 m 7,379 ft / 2,249 m 44.07° 48.59° Asphalt 0 ft / 0 m 1,735 ft / 529 m
18 164 ft / 50 m 6,816 ft / 2,078 m 178.41° 182.93° Asphalt 0 ft / 0 m 0 ft / 0 m
23 164 ft / 50 m 7,379 ft / 2,249 m 224.06° 228.58° Asphalt 0 ft / 0 m 1,063 ft / 324 m
36 164 ft / 50 m 6,816 ft / 2,078 m 358.41° 2.93° Asphalt 0 ft / 0 m 0 ft / 0 m

SACO

Details ICAO SACO (COR)
Name AMBROSIO L V TARAVELLA
Region Argentina
Timezone America/Argentina/Cordoba (UTC-3.0)
Stats Elevation 1,604 ft / 489 m (AMSL)
Location -31.313499° -64.204123°
Runways 2
Magnetic Variation 5.556° W

METAR

SACO 131300Z 06005KT 340V060 9000 FEW035 SCT100 26/12 Q1010

Decode

TAF

TAF TAF SACO 131100Z 1312/1412 32005KT 9999 SCT035 TX36/1318Z TN17/1410Z BECMG 1318/1320 16010KT 6000 TSSHRA BKN030 FEW040CB

Decode

Destination Runways

ID Width Length Bearing (true) Bearing (mag) Surface Threshold Offset Overrun Length
05 148 ft / 45 m 8,091 ft / 2,466 m 44.19° 49.75° Asphalt 840 ft / 256 m 0 ft / 0 m
18 148 ft / 45 m 10,441 ft / 3,182 m 179.75° 185.31° Concrete 0 ft / 0 m 0 ft / 0 m
23 148 ft / 45 m 8,091 ft / 2,466 m 224.18° 229.74° Asphalt 0 ft / 0 m 82 ft / 25 m
36 148 ft / 45 m 10,441 ft / 3,182 m 359.75° 5.31° Concrete 0 ft / 0 m 460 ft / 140 m

Approach Navaids

Runway Type Ident Frequency Range Bearing (true) Bearing (mag) Slope Elevation
18 Localiser CB 110.30 MHz 18 nm / 33 km 179.96° 185.52° - 1,604 ft / 489 m (AMSL)
18 Glidescope CB 110.30 MHz 10 nm / 19 km 179.75° 185.30° 2.50° 1,604 ft / 489 m (AMSL)
18 DME CB 110.30 MHz 18 nm / 33 km - - - 1,523 ft / 464 m (AMSL)

Popular Alternatives